createdAt,value
2022-11-24T00:00:02.131Z,99470.78
2022-11-24T00:04:09.017Z,99462.59
2022-11-24T00:08:12.852Z,99468.09
2022-11-24T00:12:15.862Z,99454.25
2022-11-24T00:16:21.724Z,99450.75
2022-11-24T00:20:24.791Z,99464.56
2022-11-24T00:24:27.799Z,99467.44
2022-11-24T00:28:30.979Z,99461.84
2022-11-24T00:32:35.312Z,99474.03
2022-11-24T00:36:39.408Z,99464.88
2022-11-24T00:40:43.809Z,99468.53
2022-11-24T00:44:46.842Z,99467.16
2022-11-24T00:48:52.248Z,99473.50
2022-11-24T00:52:55.282Z,99481.53
2022-11-24T00:56:58.347Z,99477.50
2022-11-24T01:01:03.701Z,99476.84
2022-11-24T01:05:08.952Z,99483.56
2022-11-24T01:09:12.415Z,99481.28
2022-11-24T01:13:15.446Z,99481.53
2022-11-24T01:17:18.573Z,99488.16
2022-11-24T01:21:23.375Z,99488.47
2022-11-24T01:25:26.451Z,99497.00
2022-11-24T01:29:29.659Z,99486.34
2022-11-24T01:33:32.948Z,99485.03
2022-11-24T01:37:37.289Z,99495.94
2022-11-24T01:41:40.314Z,99496.09
2022-11-24T01:45:43.518Z,99500.19
2022-11-24T01:49:49.825Z,99497.00
2022-11-24T01:53:58.758Z,99498.22
2022-11-24T01:58:06.401Z,99503.59
2022-11-24T02:02:10.051Z,99501.47
2022-11-24T02:06:15.229Z,99494.78
2022-11-24T02:10:19.890Z,99493.72
2022-11-24T02:14:25.370Z,99494.56
2022-11-24T02:18:28.381Z,99510.34
2022-11-24T02:22:41.440Z,99509.72
2022-11-24T02:26:48.152Z,99509.13
2022-11-24T02:30:52.249Z,99517.78
2022-11-24T02:35:02.143Z,99513.13
2022-11-24T02:39:07.161Z,99532.84
2022-11-24T02:43:17.272Z,99524.59
2022-11-24T02:47:20.269Z,99519.78
2022-11-24T02:51:23.287Z,99524.28
2022-11-24T02:55:26.301Z,99535.06
2022-11-24T02:59:30.716Z,99541.28
2022-11-24T03:03:33.972Z,99542.69
2022-11-24T03:07:37.057Z,99550.59
2022-11-24T03:11:40.198Z,99556.00
2022-11-24T03:15:44.671Z,99555.75
2022-11-24T03:19:47.716Z,99554.63
2022-11-24T03:23:50.862Z,99563.63
2022-11-24T03:27:56.547Z,99549.16
2022-11-24T03:32:01.008Z,99564.78
2022-11-24T03:36:04.161Z,99571.47
2022-11-24T03:40:08.218Z,99588.44
2022-11-24T03:44:11.205Z,99588.22
2022-11-24T03:48:16.021Z,99591.44
2022-11-24T03:52:19.016Z,99594.44
2022-11-24T03:56:22.067Z,99584.94
2022-11-24T04:00:25.127Z,99589.31
2022-11-24T04:04:29.592Z,99596.56
2022-11-24T04:08:32.697Z,99604.59
2022-11-24T04:12:47.886Z,99604.50
2022-11-24T04:16:50.940Z,99607.31
2022-11-24T04:20:55.341Z,99596.00
2022-11-24T04:24:58.439Z,99605.09
2022-11-24T04:29:01.445Z,99613.28
2022-11-24T04:33:04.459Z,99614.50
2022-11-24T04:37:08.878Z,99629.00
2022-11-24T04:41:11.907Z,99614.59
2022-11-24T04:45:14.924Z,99620.28
2022-11-24T04:49:18.250Z,99620.72
2022-11-24T04:53:22.712Z,99628.41
2022-11-24T04:57:27.448Z,99624.38
2022-11-24T05:01:30.580Z,99628.47
2022-11-24T05:05:33.897Z,99637.00
2022-11-24T05:09:59.850Z,99645.22
2022-11-24T05:14:03.012Z,99653.50
2022-11-24T05:18:07.168Z,99655.63
2022-11-24T05:22:10.190Z,99655.47
2022-11-24T05:26:14.791Z,99666.22
2022-11-24T05:30:17.791Z,99668.50
2022-11-24T05:34:20.925Z,99679.25
2022-11-24T05:38:23.970Z,99675.91
2022-11-24T05:42:47.821Z,99693.06
2022-11-24T05:46:51.419Z,99688.38
2022-11-24T05:50:55.699Z,99682.31
2022-11-24T05:54:58.703Z,99682.31
2022-11-24T05:59:08.196Z,99685.16
2022-11-24T06:03:13.146Z,99696.53
2022-11-24T06:07:16.807Z,99700.59
2022-11-24T06:11:20.110Z,99689.06
2022-11-24T06:15:24.576Z,99703.94
2022-11-24T06:19:27.616Z,99693.72
2022-11-24T06:23:30.749Z,99699.03
2022-11-24T06:27:33.780Z,99701.03
2022-11-24T06:31:38.395Z,99703.63
2022-11-24T06:35:41.414Z,99713.50
2022-11-24T06:39:44.408Z,99733.97
2022-11-24T06:43:48.054Z,99746.16
2022-11-24T06:47:54.705Z,99758.72
2022-11-24T06:51:57.697Z,99766.50
2022-11-24T06:56:03.225Z,99782.84
2022-11-24T07:00:07.907Z,99786.38
2022-11-24T07:04:12.350Z,99794.75
2022-11-24T07:08:18.010Z,99794.31
2022-11-24T07:12:21.264Z,99805.41
2022-11-24T07:16:26.297Z,99810.22
2022-11-24T07:20:30.761Z,99822.53
2022-11-24T07:24:34.009Z,99830.06
2022-11-24T07:28:38.469Z,99844.53
2022-11-24T07:32:41.531Z,99847.50
2022-11-24T07:36:45.917Z,99857.56
2022-11-24T07:40:49.229Z,99866.34
2022-11-24T07:44:52.266Z,99871.81
2022-11-24T07:48:55.398Z,99882.72
2022-11-24T07:53:03.982Z,99891.13
2022-11-24T07:57:07.030Z,99904.09
2022-11-24T08:01:12.427Z,99916.25
2022-11-24T08:05:15.565Z,99919.84
2022-11-24T08:09:20.066Z,99932.19
2022-11-24T08:13:23.124Z,99940.56
2022-11-24T08:17:26.478Z,99947.28
2022-11-24T08:21:29.529Z,99946.84
2022-11-24T08:25:34.054Z,99973.69
2022-11-24T08:29:37.081Z,99956.03
2022-11-24T08:33:40.670Z,99966.94
2022-11-24T08:37:43.746Z,99975.31
2022-11-24T08:41:48.309Z,99974.94
2022-11-24T08:45:51.595Z,99985.38
2022-11-24T08:49:54.721Z,99972.78
2022-11-24T08:53:58.851Z,99985.78
2022-11-24T08:58:03.286Z,100003.81
2022-11-24T09:02:06.702Z,100002.34
2022-11-24T09:06:10.369Z,100013.91
2022-11-24T09:10:14.017Z,100003.06
2022-11-24T09:14:18.435Z,100010.84
2022-11-24T09:18:22.755Z,100012.88
2022-11-24T09:22:27.361Z,100018.53
2022-11-24T09:26:32.744Z,100032.94
2022-11-24T09:30:37.526Z,100029.69
2022-11-24T09:34:40.626Z,100023.63
2022-11-24T09:38:43.796Z,100026.06
2022-11-24T09:42:56.447Z,100027.59
2022-11-24T09:47:10.822Z,100024.75
2022-11-24T09:51:16.229Z,100036.72
2022-11-24T09:55:32.704Z,100034.16
2022-11-24T09:59:36.052Z,100047.47
2022-11-24T10:03:44.114Z,100053.69
2022-11-24T10:08:00.345Z,100058.56
2022-11-24T10:12:17.356Z,100052.69
2022-11-24T10:16:35.335Z,100054.66
2022-11-24T10:20:52.104Z,100065.16
2022-11-24T10:25:08.259Z,100062.47
2022-11-24T10:29:22.424Z,100061.22
2022-11-24T10:33:30.858Z,100067.31
2022-11-24T10:37:41.471Z,100062.97
2022-11-24T10:41:51.333Z,100072.22
2022-11-24T10:45:55.660Z,100073.53
2022-11-24T10:50:03.582Z,100075.38
2022-11-24T10:54:14.073Z,100076.75
2022-11-24T10:58:17.949Z,100093.69
2022-11-24T11:02:37.461Z,100086.66
2022-11-24T11:06:40.657Z,100091.16
2022-11-24T11:10:46.279Z,100098.03
2022-11-24T11:14:49.383Z,100094.63
2022-11-24T11:18:53.050Z,100106.69
2022-11-24T11:22:57.530Z,100106.53
2022-11-24T11:27:04.594Z,100099.09
2022-11-24T11:31:24.794Z,100104.72
2022-11-24T11:35:29.880Z,100110.03
2022-11-24T11:39:35.475Z,100094.06
2022-11-24T11:43:41.942Z,100094.34
2022-11-24T11:47:50.946Z,100096.09
2022-11-24T11:52:19.237Z,100098.13
2022-11-24T11:56:26.416Z,100094.72
2022-11-24T12:00:35.816Z,100095.06
2022-11-24T12:04:48.521Z,100089.88
2022-11-24T12:09:19.714Z,100085.56
2022-11-24T12:13:43.701Z,100089.44
2022-11-24T12:17:58.532Z,100078.94
2022-11-24T12:22:08.608Z,100081.44
2022-11-24T12:26:22.743Z,100083.94
2022-11-24T12:30:26.832Z,100097.00
2022-11-24T12:34:42.228Z,100088.03
2022-11-24T12:38:59.798Z,100089.03
2022-11-24T12:43:13.202Z,100098.88
2022-11-24T12:47:22.703Z,100101.75
2022-11-24T12:51:32.847Z,100097.50
2022-11-24T12:55:36.764Z,100111.75
2022-11-24T12:59:47.768Z,100089.28
2022-11-24T13:04:02.244Z,100097.97
2022-11-24T13:08:07.475Z,100100.84
2022-11-24T13:12:14.488Z,100107.34
2022-11-24T13:16:36.266Z,100105.75
2022-11-24T13:20:44.030Z,100111.38
2022-11-24T13:25:13.416Z,100100.06
2022-11-24T13:29:34.846Z,100106.41
2022-11-24T13:33:39.660Z,100106.59
2022-11-24T13:37:51.782Z,100098.63
2022-11-24T13:42:05.237Z,100101.69
2022-11-24T13:46:11.098Z,100108.72
2022-11-24T13:50:26.004Z,100104.28
2022-11-24T13:54:30.010Z,100104.09
2022-11-24T13:58:38.433Z,100110.81
2022-11-24T14:02:44.871Z,100103.56
2022-11-24T14:06:55.939Z,100104.97
2022-11-24T14:11:01.013Z,100106.38
2022-11-24T14:15:23.421Z,100105.69
2022-11-24T14:19:30.874Z,100100.22
2022-11-24T14:23:35.351Z,100099.22
2022-11-24T14:27:40.202Z,100099.50
2022-11-24T14:31:54.042Z,100095.78
2022-11-24T14:35:57.385Z,100089.56
2022-11-24T14:40:00.693Z,100100.78
2022-11-24T14:44:13.670Z,100108.53
2022-11-24T14:48:21.368Z,100103.59
2022-11-24T14:52:26.007Z,100122.50
2022-11-24T14:56:30.749Z,100129.09
2022-11-24T15:00:34.834Z,100134.88
2022-11-24T15:05:04.942Z,100139.72
2022-11-24T15:09:20.197Z,100146.47
2022-11-24T15:13:26.155Z,100148.72
2022-11-24T15:17:31.145Z,100149.09
2022-11-24T15:21:37.743Z,100150.59
2022-11-24T15:25:40.922Z,100161.47
2022-11-24T15:29:43.988Z,100153.78
2022-11-24T15:33:47.043Z,100159.28
2022-11-24T15:37:51.535Z,100162.88
2022-11-24T15:41:54.718Z,100154.94
2022-11-24T15:45:58.996Z,100164.69
2022-11-24T15:50:02.089Z,100169.53
2022-11-24T15:54:07.307Z,100164.75
2022-11-24T15:58:13.682Z,100173.16
2022-11-24T16:02:16.766Z,100178.25
2022-11-24T16:06:25.139Z,100180.84
2022-11-24T16:10:32.992Z,100190.59
2022-11-24T16:14:36.628Z,100196.06
2022-11-24T16:18:40.158Z,100195.28
2022-11-24T16:22:43.441Z,100191.91
2022-11-24T16:26:47.872Z,100196.56
2022-11-24T16:30:51.391Z,100206.25
2022-11-24T16:34:54.642Z,100197.00
2022-11-24T16:38:57.786Z,100203.72
2022-11-24T16:43:02.160Z,100197.44
2022-11-24T16:47:05.295Z,100201.63
2022-11-24T16:51:10.204Z,100199.53
2022-11-24T16:55:14.326Z,100210.03
2022-11-24T16:59:19.026Z,100208.75
2022-11-24T17:03:22.274Z,100198.28
2022-11-24T17:07:25.430Z,100192.16
2022-11-24T17:11:29.974Z,100192.38
2022-11-24T17:15:39.149Z,100196.59
2022-11-24T17:19:46.385Z,100199.13
2022-11-24T17:23:53.909Z,100207.94
2022-11-24T17:27:56.965Z,100209.19
2022-11-24T17:32:01.534Z,100213.78
2022-11-24T17:36:05.393Z,100221.97
2022-11-24T17:40:30.947Z,100222.38
2022-11-24T17:44:32.668Z,100219.44
2022-11-24T17:48:37.685Z,100229.72
2022-11-24T17:52:40.744Z,100218.38
2022-11-24T17:56:43.812Z,100226.75
2022-11-24T18:00:46.961Z,100226.75
2022-11-24T18:04:51.442Z,100220.47
2022-11-24T18:08:56.390Z,100220.47
2022-11-24T18:12:59.916Z,100220.66
2022-11-24T18:17:03.083Z,100212.50
2022-11-24T18:21:08.620Z,100220.91
2022-11-24T18:25:11.745Z,100217.09
2022-11-24T18:29:14.953Z,100220.59
2022-11-24T18:33:18.622Z,100216.19
2022-11-24T18:37:23.075Z,100210.66
2022-11-24T18:41:26.397Z,100213.72
2022-11-24T18:45:29.535Z,100222.25
2022-11-24T18:49:32.656Z,100216.97
2022-11-24T18:53:37.022Z,100213.13
2022-11-24T18:57:40.084Z,100196.16
2022-11-24T19:01:43.232Z,100205.75
2022-11-24T19:05:46.518Z,100204.47
2022-11-24T19:09:50.769Z,100206.94
2022-11-24T19:13:53.668Z,100207.97
2022-11-24T19:17:56.697Z,100202.69
2022-11-24T19:21:59.749Z,100208.03
2022-11-24T19:26:05.003Z,100202.75
2022-11-24T19:30:09.789Z,100197.56
2022-11-24T19:34:12.847Z,100197.25
2022-11-24T19:38:15.972Z,100203.06
2022-11-24T19:42:20.401Z,100205.84
2022-11-24T19:46:26.583Z,100206.06
2022-11-24T19:50:29.444Z,100201.03
2022-11-24T19:54:34.363Z,100211.00
2022-11-24T19:58:40.011Z,100202.56
2022-11-24T20:02:42.941Z,100201.53
2022-11-24T20:06:46.779Z,100207.75
2022-11-24T20:10:49.769Z,100216.94
2022-11-24T20:14:54.087Z,100217.31
2022-11-24T20:18:57.816Z,100209.16
2022-11-24T20:23:00.738Z,100212.72
2022-11-24T20:27:03.852Z,100208.91
2022-11-24T20:31:11.429Z,100204.59
2022-11-24T20:35:18.217Z,100209.97
2022-11-24T20:39:22.547Z,100204.09
2022-11-24T20:43:25.420Z,100211.97
2022-11-24T20:47:30.880Z,100214.31
2022-11-24T20:51:34.574Z,100211.84
2022-11-24T20:55:37.742Z,100227.31
2022-11-24T20:59:40.763Z,100228.47
2022-11-24T21:03:45.642Z,100220.03
2022-11-24T21:07:48.640Z,100223.94
2022-11-24T21:11:51.596Z,100218.06
2022-11-24T21:15:54.631Z,100203.34
2022-11-24T21:20:01.118Z,100195.69
2022-11-24T21:24:05.007Z,100198.50
2022-11-24T21:28:09.489Z,100197.66
2022-11-24T21:32:12.408Z,100197.66
2022-11-24T21:36:17.865Z,100199.84
2022-11-24T21:40:20.762Z,100192.91
2022-11-24T21:44:23.637Z,100197.13
2022-11-24T21:48:26.526Z,100190.97
2022-11-24T21:52:30.723Z,100175.00
2022-11-24T21:56:33.855Z,100164.59
2022-11-24T22:00:36.729Z,100161.31
2022-11-24T22:04:39.581Z,100166.38
2022-11-24T22:08:43.949Z,100165.13
2022-11-24T22:12:46.981Z,100159.25
2022-11-24T22:16:50.307Z,100163.81
2022-11-24T22:20:55.844Z,100165.47
2022-11-24T22:25:00.264Z,100160.81
2022-11-24T22:29:03.740Z,100154.09
2022-11-24T22:33:07.101Z,100152.84
2022-11-24T22:37:10.289Z,100140.25
2022-11-24T22:41:16.082Z,100133.94
2022-11-24T22:45:19.162Z,100132.75
2022-11-24T22:49:23.631Z,100123.13
2022-11-24T22:53:27.061Z,100115.84
2022-11-24T22:57:31.434Z,100124.03
2022-11-24T23:01:34.772Z,100114.81
2022-11-24T23:05:37.797Z,100111.88
2022-11-24T23:09:40.846Z,100121.13
2022-11-24T23:13:45.595Z,100126.34
2022-11-24T23:17:48.748Z,100127.38
2022-11-24T23:21:51.769Z,100133.16
2022-11-24T23:25:54.767Z,100136.44
2022-11-24T23:29:59.111Z,100133.94
2022-11-24T23:34:04.069Z,100140.16
2022-11-24T23:38:08.074Z,100136.44
2022-11-24T23:42:11.231Z,100135.59
2022-11-24T23:46:18.291Z,100140.34
2022-11-24T23:50:21.375Z,100136.78
2022-11-24T23:54:24.495Z,100134.44
2022-11-24T23:58:27.990Z,100139.31
